This is the latest recevied weather packets stored in our database for station/object DL4YM-13. If no packets are shown the sender has not sent any weather packets the latest 10 day(s).
| Time | Temp. | Humidity | Pressure | Rain* | Wind** | Luminosity | Snow |
|---|---|---|---|---|---|---|---|
| 1777673725 | 13.89° C | 49% | 1006.9 hPa | - | - | - | - |
| 1777673125 | 13.89° C | 49% | 1006.9 hPa | - | - | - | - |
| 1777672525 | 14.44° C | 48% | 1006.8 hPa | - | - | - | - |
| 1777671925 | 14.44° C | 48% | 1006.8 hPa | - | - | - | - |
| 1777671325 | 14.44° C | 48% | 1006.8 hPa | - | - | - | - |
| 1777670725 | 14.44° C | 47% | 1006.8 hPa | - | - | - | - |
| 1777670125 | 15° C | 47% | 1006.7 hPa | - | - | - | - |
| 1777669525 | 15° C | 47% | 1006.8 hPa | - | - | - | - |
| 1777668925 | 15° C | 46% | 1006.8 hPa | - | - | - | - |
| 1777668325 | 15° C | 45% | 1006.9 hPa | - | - | - | - |
| 1777667725 | 15.56° C | 45% | 1006.8 hPa | - | - | - | - |
| 1777667125 | 15.56° C | 46% | 1006.9 hPa | - | - | - | - |
| 1777666525 | 15.56° C | 46% | 1006.9 hPa | - | - | - | - |
| 1777665925 | 15.56° C | 46% | 1006.9 hPa | - | - | - | - |
| 1777665325 | 16.11° C | 44% | 1006.9 hPa | - | - | - | - |
| 1777664725 | 16.11° C | 44% | 1006.9 hPa | - | - | - | - |
| 1777664125 | 16.67° C | 42% | 1006.8 hPa | - | - | - | - |
| 1777663525 | 16.67° C | 42% | 1006.8 hPa | - | - | - | - |
| 1777662925 | 17.22° C | 41% | 1006.7 hPa | - | - | - | - |
| 1777662325 | 17.22° C | 41% | 1006.7 hPa | - | - | - | - |
| 1777661725 | 17.22° C | 42% | 1006.7 hPa | - | - | - | - |
| 1777661125 | 18.33° C | 40% | 1006.7 hPa | - | - | - | - |
| 1777660525 | 18.33° C | 40% | 1006.7 hPa | - | - | - | - |
| 1777659325 | 18.89° C | 36% | 1006.7 hPa | - | - | - | - |
| 1777658726 | 19.44° C | 35% | 1006.5 hPa | - | - | - | - |
* Rain since midnight (hover to see other rain measurements)
** Current wind speed in m/s (hover to see current wind gust speed)